createdAt,value
2023-05-19T00:00:37.432Z,56.04
2023-05-19T00:06:06.510Z,56.31
2023-05-19T00:11:17.515Z,56.51
2023-05-19T00:16:29.157Z,56.65
2023-05-19T00:21:39.695Z,56.67
2023-05-19T00:26:49.375Z,56.81
2023-05-19T00:31:59.734Z,56.77
2023-05-19T00:37:10.114Z,56.84
2023-05-19T00:42:20.164Z,56.96
2023-05-19T00:47:30.028Z,57.11
2023-05-19T00:52:39.967Z,57.19
2023-05-19T00:57:51.116Z,57.38
2023-05-19T01:03:01.156Z,57.58
2023-05-19T01:08:11.874Z,57.73
2023-05-19T01:13:22.093Z,57.97
2023-05-19T01:18:43.930Z,58.14
2023-05-19T01:24:10.389Z,58.35
2023-05-19T01:29:48.169Z,58.52
2023-05-19T01:34:59.555Z,58.81
2023-05-19T01:40:13.414Z,58.76
2023-05-19T01:45:25.836Z,58.97
2023-05-19T01:50:36.279Z,59.09
2023-05-19T01:55:51.185Z,59.22
2023-05-19T02:01:24.203Z,59.26
2023-05-19T02:07:16.991Z,59.29
2023-05-19T02:12:34.251Z,59.35
2023-05-19T02:17:51.068Z,59.54
2023-05-19T02:23:01.037Z,59.65
2023-05-19T02:28:12.230Z,59.77
2023-05-19T02:33:25.065Z,59.97
2023-05-19T02:38:35.134Z,60.35
2023-05-19T02:43:45.082Z,60.51
2023-05-19T02:48:55.101Z,60.46
2023-05-19T02:54:04.937Z,60.66
2023-05-19T02:59:14.731Z,60.72
2023-05-19T03:04:24.575Z,60.94
2023-05-19T03:09:36.998Z,60.93
2023-05-19T03:14:46.835Z,61.21
2023-05-19T03:19:59.860Z,61.35
2023-05-19T03:25:11.720Z,61.40
2023-05-19T03:30:35.817Z,61.43
2023-05-19T03:35:48.115Z,61.52
2023-05-19T03:40:57.703Z,61.54
2023-05-19T03:46:07.398Z,61.61
2023-05-19T03:51:17.402Z,61.60
2023-05-19T03:56:28.153Z,61.45
2023-05-19T04:01:38.194Z,61.60
2023-05-19T04:06:49.070Z,61.61
2023-05-19T04:11:58.736Z,61.67
2023-05-19T04:17:08.680Z,61.69
2023-05-19T04:22:18.652Z,61.81
2023-05-19T04:27:30.500Z,61.72
2023-05-19T04:32:41.773Z,61.67
2023-05-19T04:37:53.597Z,61.69
2023-05-19T04:43:03.701Z,61.78
2023-05-19T04:48:14.213Z,61.66
2023-05-19T04:53:26.064Z,61.81
2023-05-19T04:58:36.056Z,61.62
2023-05-19T05:03:46.042Z,61.72
2023-05-19T05:08:57.093Z,61.64
2023-05-19T05:14:08.461Z,61.69
2023-05-19T05:19:22.590Z,61.55
2023-05-19T05:24:34.208Z,61.57
2023-05-19T05:29:44.010Z,61.43
2023-05-19T05:34:54.238Z,61.13
2023-05-19T05:40:07.524Z,61.04
2023-05-19T05:45:17.852Z,61.03
2023-05-19T05:50:29.386Z,61.09
2023-05-19T05:55:42.023Z,60.77
2023-05-19T06:00:51.970Z,60.74
2023-05-19T06:06:02.197Z,60.53
2023-05-19T06:11:12.157Z,60.41
2023-05-19T06:16:22.103Z,60.31
2023-05-19T06:21:31.904Z,60.24
2023-05-19T06:26:42.165Z,60.03
2023-05-19T06:31:51.906Z,59.88
2023-05-19T06:37:02.806Z,59.62
2023-05-19T06:42:12.687Z,59.08
2023-05-19T06:47:22.831Z,58.46
2023-05-19T06:52:33.043Z,58.33
2023-05-19T06:57:42.866Z,58.20
2023-05-19T07:02:53.060Z,57.67
2023-05-19T07:08:03.362Z,57.06
2023-05-19T07:13:13.313Z,56.58
2023-05-19T07:18:23.809Z,56.14
2023-05-19T07:23:33.704Z,56.13
2023-05-19T07:28:43.789Z,55.27
2023-05-19T07:33:54.633Z,54.69
2023-05-19T07:39:05.195Z,54.44
2023-05-19T07:44:15.220Z,54.58
2023-05-19T07:49:25.233Z,54.99
2023-05-19T07:54:34.962Z,55.06
2023-05-19T07:59:45.157Z,55.21
2023-05-19T08:04:55.199Z,55.26
2023-05-19T08:10:05.504Z,55.24
2023-05-19T08:15:16.887Z,54.72
2023-05-19T08:20:27.226Z,54.57
2023-05-19T08:25:37.041Z,54.26
2023-05-19T08:30:47.080Z,53.34
2023-05-19T08:35:58.304Z,53.51
2023-05-19T08:41:08.764Z,53.37
2023-05-19T08:46:20.604Z,53.47
2023-05-19T08:51:46.230Z,53.14
2023-05-19T08:56:56.009Z,53.10
2023-05-19T09:02:07.822Z,52.85
2023-05-19T09:07:19.198Z,52.81
2023-05-19T09:12:28.950Z,52.19
2023-05-19T09:17:39.264Z,51.79
2023-05-19T09:22:50.977Z,51.32
2023-05-19T09:28:00.891Z,50.40
2023-05-19T09:33:11.116Z,50.01
2023-05-19T09:38:25.274Z,49.72
2023-05-19T09:43:36.857Z,49.75
2023-05-19T09:48:46.889Z,49.17
2023-05-19T09:53:57.794Z,48.94
2023-05-19T09:59:10.393Z,48.65
2023-05-19T10:04:22.685Z,48.53
2023-05-19T10:09:33.493Z,48.09
2023-05-19T10:14:44.220Z,48.05
2023-05-19T10:19:56.505Z,48.29
2023-05-19T10:25:06.556Z,48.67
2023-05-19T10:30:23.458Z,48.96
2023-05-19T10:36:11.195Z,49.01
2023-05-19T10:41:30.860Z,49.77
2023-05-19T10:46:44.182Z,50.97
2023-05-19T10:51:57.159Z,52.01
2023-05-19T10:57:08.480Z,52.97
2023-05-19T11:02:45.514Z,54.10
2023-05-19T11:08:05.781Z,54.72
2023-05-19T11:13:26.166Z,55.47
2023-05-19T11:18:38.658Z,55.51
2023-05-19T11:23:48.496Z,55.86
2023-05-19T11:28:58.603Z,55.90
2023-05-19T11:34:10.355Z,56.33
2023-05-19T11:39:20.992Z,56.44
2023-05-19T11:44:30.934Z,56.86
2023-05-19T11:49:41.309Z,57.47
2023-05-19T11:54:53.761Z,57.60
2023-05-19T12:00:09.379Z,57.85
2023-05-19T12:05:26.964Z,58.01
2023-05-19T12:10:38.565Z,58.31
2023-05-19T12:15:48.506Z,58.91
2023-05-19T12:20:58.983Z,59.26
2023-05-19T12:26:12.292Z,59.34
2023-05-19T12:31:25.458Z,59.92
2023-05-19T12:36:37.086Z,59.83
2023-05-19T12:41:50.200Z,60.06
2023-05-19T12:47:06.239Z,60.58
2023-05-19T12:52:19.033Z,60.90
2023-05-19T12:57:30.000Z,61.43
2023-05-19T13:02:58.525Z,61.88
2023-05-19T13:08:13.014Z,62.35
2023-05-19T13:13:22.911Z,62.73
2023-05-19T13:18:35.205Z,62.96
2023-05-19T13:23:44.934Z,63.14
2023-05-19T13:28:55.076Z,62.46
2023-05-19T13:34:04.891Z,61.88
2023-05-19T13:39:14.569Z,61.14
2023-05-19T13:44:26.100Z,60.58
2023-05-19T13:49:35.801Z,60.44
2023-05-19T13:54:46.578Z,60.27
2023-05-19T14:00:03.257Z,60.15
2023-05-19T14:05:14.637Z,60.24
2023-05-19T14:10:24.421Z,60.69
2023-05-19T14:15:38.308Z,61.00
2023-05-19T14:20:48.194Z,61.08
2023-05-19T14:25:58.650Z,60.99
2023-05-19T14:31:12.575Z,60.88
2023-05-19T14:36:22.593Z,60.94
2023-05-19T14:41:32.272Z,60.90
2023-05-19T14:46:42.376Z,60.90
2023-05-19T14:51:52.121Z,60.59
2023-05-19T14:57:01.921Z,60.49
2023-05-19T15:02:13.059Z,60.22
2023-05-19T15:07:22.714Z,60.19
2023-05-19T15:12:33.079Z,60.08
2023-05-19T15:17:43.451Z,60.15
2023-05-19T15:22:53.102Z,60.33
2023-05-19T15:28:02.796Z,60.50
2023-05-19T15:33:12.488Z,60.42
2023-05-19T15:38:22.701Z,60.36
2023-05-19T15:43:32.347Z,60.38
2023-05-19T15:48:42.064Z,60.48
2023-05-19T15:53:51.686Z,60.66
2023-05-19T15:59:01.776Z,60.84
2023-05-19T16:04:11.676Z,60.92
2023-05-19T16:09:21.460Z,60.93
2023-05-19T16:14:36.777Z,61.09
2023-05-19T16:19:46.695Z,61.08
2023-05-19T16:24:56.534Z,61.13
2023-05-19T16:30:06.898Z,61.15
2023-05-19T16:35:17.218Z,61.14
2023-05-19T16:40:30.138Z,61.33
2023-05-19T16:45:40.988Z,61.44
2023-05-19T16:50:52.871Z,61.47
2023-05-19T16:56:02.590Z,61.60
2023-05-19T17:01:12.503Z,61.76
2023-05-19T17:06:22.249Z,61.81
2023-05-19T17:11:32.003Z,61.94
2023-05-19T17:16:42.360Z,62.08
2023-05-19T17:21:52.054Z,62.17
2023-05-19T17:27:02.338Z,62.26
2023-05-19T17:32:12.465Z,62.42
2023-05-19T17:37:25.879Z,62.63
2023-05-19T17:42:35.602Z,62.77
2023-05-19T17:47:45.265Z,62.85
2023-05-19T17:52:58.580Z,63.01
2023-05-19T17:58:09.997Z,63.31
2023-05-19T18:03:21.642Z,63.56
2023-05-19T18:08:34.372Z,63.59
2023-05-19T18:13:44.204Z,63.88
2023-05-19T18:18:53.887Z,63.99
2023-05-19T18:24:04.690Z,64.14
2023-05-19T18:29:16.310Z,64.15
2023-05-19T18:34:27.955Z,64.26
2023-05-19T18:39:38.455Z,64.41
2023-05-19T18:44:50.937Z,64.58
2023-05-19T18:50:00.805Z,64.74
2023-05-19T18:55:12.345Z,64.80
2023-05-19T19:00:23.977Z,64.96
2023-05-19T19:05:33.715Z,65.17
2023-05-19T19:10:43.896Z,65.21
2023-05-19T19:15:53.623Z,65.47
2023-05-19T19:21:03.987Z,65.64
2023-05-19T19:26:13.572Z,65.96
2023-05-19T19:31:23.524Z,66.13
2023-05-19T19:36:33.393Z,66.51
2023-05-19T19:41:43.155Z,66.68
2023-05-19T19:46:53.073Z,66.90
2023-05-19T19:52:03.408Z,67.12
2023-05-19T19:57:13.050Z,67.25
2023-05-19T20:02:22.940Z,67.50
2023-05-19T20:07:32.862Z,67.74
2023-05-19T20:12:42.686Z,67.91
2023-05-19T20:17:52.485Z,68.32
2023-05-19T20:23:02.116Z,68.33
2023-05-19T20:28:11.846Z,68.56
2023-05-19T20:33:21.925Z,68.71
2023-05-19T20:38:31.731Z,68.85
2023-05-19T20:43:41.513Z,68.84
2023-05-19T20:48:51.251Z,69.11
2023-05-19T20:54:01.688Z,69.18
2023-05-19T20:59:11.341Z,69.39
2023-05-19T21:04:21.857Z,69.32
2023-05-19T21:09:32.296Z,69.44
2023-05-19T21:14:42.257Z,69.52
2023-05-19T21:19:56.628Z,69.71
2023-05-19T21:25:07.298Z,69.78
2023-05-19T21:30:18.388Z,69.94
2023-05-19T21:35:28.020Z,70.01
2023-05-19T21:40:37.980Z,70.11
2023-05-19T21:45:47.736Z,70.21
2023-05-19T21:51:00.785Z,70.33
2023-05-19T21:56:11.005Z,70.28
2023-05-19T22:01:20.964Z,70.50
2023-05-19T22:06:31.790Z,70.54
2023-05-19T22:11:41.660Z,70.66
2023-05-19T22:16:51.665Z,70.65
2023-05-19T22:22:12.970Z,70.64
2023-05-19T22:27:23.434Z,70.79
2023-05-19T22:32:33.082Z,70.75
2023-05-19T22:37:42.781Z,70.82
2023-05-19T22:42:52.429Z,71.00
2023-05-19T22:48:02.124Z,71.01
2023-05-19T22:53:11.749Z,71.00
2023-05-19T22:58:21.308Z,70.93
2023-05-19T23:03:31.133Z,70.88
2023-05-19T23:08:40.811Z,70.90
2023-05-19T23:13:50.780Z,70.92
2023-05-19T23:19:00.395Z,70.84
2023-05-19T23:24:10.888Z,70.85
2023-05-19T23:29:20.527Z,70.80
2023-05-19T23:34:30.190Z,70.81
2023-05-19T23:39:39.805Z,70.82
2023-05-19T23:44:49.694Z,70.84
2023-05-19T23:49:59.258Z,70.83
2023-05-19T23:55:12.906Z,70.86
